createdAt,value
2024-01-24T00:00:25.531Z,59.46
2024-01-24T00:02:28.269Z,58.31
2024-01-24T00:04:31.059Z,61.98
2024-01-24T00:06:33.896Z,61.30
2024-01-24T00:08:36.630Z,56.55
2024-01-24T00:10:39.382Z,55.28
2024-01-24T00:12:42.127Z,57.42
2024-01-24T00:14:44.876Z,62.42
2024-01-24T00:16:47.598Z,64.45
2024-01-24T00:18:50.482Z,65.01
2024-01-24T00:20:55.315Z,66.97
2024-01-24T00:22:58.139Z,59.73
2024-01-24T00:25:00.863Z,56.80
2024-01-24T00:27:03.680Z,58.19
2024-01-24T00:29:06.414Z,58.00
2024-01-24T00:31:09.546Z,56.25
2024-01-24T00:33:12.403Z,54.23
2024-01-24T00:35:15.299Z,52.71
2024-01-24T00:37:18.104Z,51.28
2024-01-24T00:39:20.856Z,49.02
2024-01-24T00:41:23.693Z,53.42
2024-01-24T00:43:27.216Z,56.58
2024-01-24T00:45:30.044Z,59.08
2024-01-24T00:47:32.996Z,59.87
2024-01-24T00:49:35.833Z,59.63
2024-01-24T00:51:38.902Z,58.78
2024-01-24T00:53:41.699Z,57.57
2024-01-24T00:55:47.163Z,57.74
2024-01-24T00:57:50.062Z,53.90
2024-01-24T00:59:52.825Z,52.23
2024-01-24T01:01:55.622Z,50.47
2024-01-24T01:03:58.484Z,48.82
2024-01-24T01:06:01.270Z,49.24
2024-01-24T01:08:04.317Z,53.78
2024-01-24T01:10:09.608Z,51.91
2024-01-24T01:12:12.408Z,54.23
2024-01-24T01:14:15.172Z,53.47
2024-01-24T01:16:17.908Z,52.88
2024-01-24T01:18:20.662Z,56.55
2024-01-24T01:20:23.394Z,60.85
2024-01-24T01:22:26.190Z,56.67
2024-01-24T01:24:28.961Z,45.88
2024-01-24T01:26:34.020Z,53.25
2024-01-24T01:28:36.770Z,62.58
2024-01-24T01:30:40.154Z,61.84
2024-01-24T01:32:43.268Z,57.72
2024-01-24T01:34:46.130Z,55.51
2024-01-24T01:36:48.959Z,51.75
2024-01-24T01:38:51.780Z,50.21
2024-01-24T01:40:54.541Z,53.25
2024-01-24T01:42:57.846Z,51.12
2024-01-24T01:45:00.617Z,51.53
2024-01-24T01:47:03.907Z,49.90
2024-01-24T01:49:08.334Z,44.79
2024-01-24T01:51:12.601Z,46.51
2024-01-24T01:53:17.141Z,50.96
2024-01-24T01:55:20.078Z,55.50
2024-01-24T01:57:22.958Z,52.40
2024-01-24T01:59:27.069Z,52.54
2024-01-24T02:01:30.039Z,54.41
2024-01-24T02:03:33.221Z,51.69
2024-01-24T02:05:38.902Z,52.99
2024-01-24T02:07:45.308Z,52.97
2024-01-24T02:09:48.300Z,50.32
2024-01-24T02:11:51.158Z,51.11
2024-01-24T02:14:00.678Z,52.38
2024-01-24T02:16:04.776Z,51.45
2024-01-24T02:18:07.675Z,51.89
2024-01-24T02:20:13.575Z,54.85
2024-01-24T02:22:16.351Z,53.76
2024-01-24T02:24:19.174Z,48.84
2024-01-24T02:26:21.961Z,46.77
2024-01-24T02:28:24.984Z,45.55
2024-01-24T02:30:27.784Z,43.76
2024-01-24T02:32:30.578Z,39.38
2024-01-24T02:34:33.542Z,31.45
2024-01-24T02:36:36.501Z,32.75
2024-01-24T02:38:39.245Z,31.19
2024-01-24T02:40:42.145Z,35.25
2024-01-24T02:42:44.936Z,40.47
2024-01-24T02:44:47.831Z,39.83
2024-01-24T02:46:50.588Z,42.36
2024-01-24T02:48:53.474Z,41.77
2024-01-24T02:50:56.310Z,41.26
2024-01-24T02:52:59.165Z,40.12
2024-01-24T02:55:02.078Z,40.00
2024-01-24T02:57:05.997Z,36.66
2024-01-24T02:59:08.789Z,35.25
2024-01-24T03:01:11.706Z,34.46
2024-01-24T03:03:14.549Z,34.66
2024-01-24T03:05:17.359Z,34.84
2024-01-24T03:07:20.131Z,35.52
2024-01-24T03:09:23.468Z,36.35
2024-01-24T03:11:26.519Z,38.15
2024-01-24T03:13:29.326Z,41.81
2024-01-24T03:15:32.182Z,42.49
2024-01-24T03:17:35.258Z,39.18
2024-01-24T03:19:38.114Z,39.69
2024-01-24T03:21:41.763Z,39.07
2024-01-24T03:23:45.172Z,38.50
2024-01-24T03:25:47.923Z,34.65
2024-01-24T03:27:50.718Z,33.75
2024-01-24T03:29:53.610Z,32.76
2024-01-24T03:31:56.336Z,34.61
2024-01-24T03:33:59.207Z,34.95
2024-01-24T03:36:02.009Z,33.87
2024-01-24T03:38:05.566Z,33.95
2024-01-24T03:40:08.937Z,35.32
2024-01-24T03:42:11.687Z,40.12
2024-01-24T03:44:14.471Z,47.10
2024-01-24T03:46:21.384Z,48.26
2024-01-24T03:48:24.387Z,47.31
2024-01-24T03:50:27.176Z,45.94
2024-01-24T03:52:30.293Z,47.79
2024-01-24T03:54:33.099Z,48.55
2024-01-24T03:56:35.875Z,47.10
2024-01-24T03:58:38.807Z,46.67
2024-01-24T04:00:41.629Z,47.77
2024-01-24T04:02:44.446Z,47.77
2024-01-24T04:04:47.217Z,41.98
2024-01-24T04:06:50.208Z,39.62
2024-01-24T04:08:53.060Z,42.21
2024-01-24T04:10:55.974Z,42.25
2024-01-24T04:12:58.750Z,43.97
2024-01-24T04:15:01.622Z,45.11
2024-01-24T04:17:04.373Z,44.87
2024-01-24T04:19:07.928Z,43.59
2024-01-24T04:21:10.700Z,44.50
2024-01-24T04:23:13.493Z,43.58
2024-01-24T04:25:16.403Z,43.49
2024-01-24T04:27:19.457Z,43.45
2024-01-24T04:29:22.209Z,43.28
2024-01-24T04:31:24.949Z,43.42
2024-01-24T04:33:27.769Z,44.79
2024-01-24T04:35:30.664Z,45.14
2024-01-24T04:37:33.407Z,45.27
2024-01-24T04:39:36.165Z,45.55
2024-01-24T04:41:41.294Z,45.44
2024-01-24T04:43:44.288Z,48.00
2024-01-24T04:45:47.163Z,50.46
2024-01-24T04:47:49.972Z,49.21
2024-01-24T04:49:52.843Z,47.35
2024-01-24T04:51:55.696Z,46.69
2024-01-24T04:53:58.462Z,46.99
2024-01-24T04:56:01.237Z,46.63
2024-01-24T04:58:04.500Z,49.39
2024-01-24T05:00:09.274Z,49.65
2024-01-24T05:02:12.018Z,49.99
2024-01-24T05:04:14.857Z,52.54
2024-01-24T05:06:17.745Z,52.59
2024-01-24T05:08:20.524Z,51.52
2024-01-24T05:10:23.277Z,50.35
2024-01-24T05:12:26.073Z,47.98
2024-01-24T05:14:29.515Z,47.48
2024-01-24T05:16:32.284Z,45.56
2024-01-24T05:18:35.143Z,46.90
2024-01-24T05:20:38.411Z,47.99
2024-01-24T05:22:41.184Z,47.45
2024-01-24T05:24:47.429Z,45.06
2024-01-24T05:26:50.197Z,45.34
2024-01-24T05:28:52.969Z,43.87
2024-01-24T05:30:55.817Z,42.79
2024-01-24T05:32:59.234Z,39.29
2024-01-24T05:35:02.225Z,37.53
2024-01-24T05:37:05.112Z,41.08
2024-01-24T05:39:08.818Z,37.84
2024-01-24T05:41:11.780Z,37.67
2024-01-24T05:43:14.559Z,35.58
2024-01-24T05:45:17.315Z,35.72
2024-01-24T05:47:20.060Z,34.42
2024-01-24T05:49:22.907Z,32.03
2024-01-24T05:51:25.764Z,31.94
2024-01-24T05:53:28.863Z,33.45
2024-01-24T05:55:31.672Z,40.17
2024-01-24T05:57:34.429Z,45.75
2024-01-24T05:59:37.328Z,44.79
2024-01-24T06:01:40.273Z,44.42
2024-01-24T06:03:43.208Z,41.09
2024-01-24T06:05:46.240Z,44.30
2024-01-24T06:07:50.933Z,46.03
2024-01-24T06:09:53.828Z,38.49
2024-01-24T06:11:56.662Z,32.60
2024-01-24T06:13:59.509Z,29.54
2024-01-24T06:16:02.999Z,31.43
2024-01-24T06:18:05.973Z,28.81
2024-01-24T06:20:10.420Z,28.13
2024-01-24T06:22:13.210Z,26.54
2024-01-24T06:24:16.285Z,20.36
2024-01-24T06:26:19.109Z,17.32
2024-01-24T06:28:21.850Z,15.99
2024-01-24T06:30:26.745Z,14.45
2024-01-24T06:32:30.929Z,15.86
2024-01-24T06:34:33.763Z,14.34
2024-01-24T06:36:36.707Z,14.65
2024-01-24T06:38:39.472Z,12.95
2024-01-24T06:40:42.366Z,12.27
2024-01-24T06:42:45.128Z,12.96
2024-01-24T06:44:47.868Z,13.28
2024-01-24T06:46:50.645Z,12.49
2024-01-24T06:48:53.777Z,12.46
2024-01-24T06:50:56.676Z,12.49
2024-01-24T06:52:59.822Z,13.02
2024-01-24T06:55:03.077Z,13.05
2024-01-24T06:57:05.820Z,13.15
2024-01-24T06:59:08.599Z,13.44
2024-01-24T07:01:14.793Z,12.64
2024-01-24T07:03:20.368Z,13.45
2024-01-24T07:05:24.996Z,13.29
2024-01-24T07:07:27.804Z,14.12
2024-01-24T07:09:30.710Z,14.06
2024-01-24T07:11:33.605Z,14.44
2024-01-24T07:13:37.829Z,14.67
2024-01-24T07:15:41.000Z,16.52
2024-01-24T07:17:44.159Z,15.96
2024-01-24T07:19:48.367Z,15.25
2024-01-24T07:21:52.296Z,15.72
2024-01-24T07:23:55.602Z,13.92
2024-01-24T07:25:58.704Z,15.11
2024-01-24T07:28:01.479Z,15.47
2024-01-24T07:30:05.727Z,17.67
2024-01-24T07:32:11.166Z,18.23
2024-01-24T07:34:14.010Z,18.70
2024-01-24T07:36:17.056Z,16.83
2024-01-24T07:38:20.054Z,15.58
2024-01-24T07:40:22.789Z,16.99
2024-01-24T07:42:25.535Z,17.79
2024-01-24T07:44:28.319Z,17.20
2024-01-24T07:46:33.931Z,17.72
2024-01-24T07:48:37.541Z,17.86
2024-01-24T07:50:40.518Z,17.83
2024-01-24T07:52:44.754Z,17.65
2024-01-24T07:54:47.670Z,18.42
2024-01-24T07:56:50.473Z,18.31
2024-01-24T07:58:54.414Z,17.28
2024-01-24T08:00:57.392Z,18.82
2024-01-24T08:03:00.406Z,21.53
2024-01-24T08:05:03.882Z,23.44
2024-01-24T08:07:07.010Z,30.43
2024-01-24T08:09:11.240Z,29.49
2024-01-24T08:11:16.442Z,36.70
2024-01-24T08:13:20.233Z,42.73
2024-01-24T08:15:23.030Z,43.58
2024-01-24T08:17:26.597Z,37.72
2024-01-24T08:19:29.646Z,28.72
2024-01-24T08:21:32.890Z,27.70
2024-01-24T08:23:42.878Z,27.59
2024-01-24T08:25:51.946Z,26.31
2024-01-24T08:27:54.885Z,27.31
2024-01-24T08:29:58.369Z,27.95
2024-01-24T08:32:01.345Z,26.48
2024-01-24T08:34:04.309Z,25.13
2024-01-24T08:36:07.140Z,24.59
2024-01-24T08:38:10.974Z,23.65
2024-01-24T08:40:13.783Z,23.78
2024-01-24T08:42:16.649Z,24.30
2024-01-24T08:44:19.564Z,25.68
2024-01-24T08:46:22.360Z,27.02
2024-01-24T08:48:26.292Z,25.97
2024-01-24T08:50:29.197Z,23.89
2024-01-24T08:52:36.165Z,24.58
2024-01-24T08:54:39.567Z,27.25
2024-01-24T08:56:42.614Z,25.96
2024-01-24T08:58:45.781Z,25.23
2024-01-24T09:00:48.731Z,26.19
2024-01-24T09:02:51.832Z,23.76
2024-01-24T09:04:56.366Z,24.05
2024-01-24T09:06:59.301Z,23.45
2024-01-24T09:09:02.258Z,24.05
2024-01-24T09:11:05.591Z,22.79
2024-01-24T09:13:08.556Z,23.41
2024-01-24T09:15:11.439Z,22.55
2024-01-24T09:17:14.981Z,22.05
2024-01-24T09:19:18.192Z,22.79
2024-01-24T09:21:21.129Z,22.45
2024-01-24T09:23:24.006Z,22.94
2024-01-24T09:25:26.936Z,23.83
2024-01-24T09:27:30.241Z,25.41
2024-01-24T09:29:33.048Z,25.77
2024-01-24T09:31:35.885Z,27.65
2024-01-24T09:33:40.191Z,24.84
2024-01-24T09:35:45.316Z,23.51
2024-01-24T09:37:48.166Z,23.37
2024-01-24T09:39:52.282Z,23.59
2024-01-24T09:41:57.089Z,23.85
2024-01-24T09:44:05.106Z,25.44
2024-01-24T09:46:13.589Z,54.58
2024-01-24T09:48:18.156Z,31.73
2024-01-24T09:50:23.289Z,46.16
2024-01-24T09:52:28.064Z,25.47
2024-01-24T09:54:32.739Z,37.98
2024-01-24T09:56:39.753Z,53.75
2024-01-24T09:58:42.584Z,35.22
2024-01-24T10:00:45.772Z,34.81
2024-01-24T10:02:48.982Z,37.92
2024-01-24T10:04:53.479Z,38.10
2024-01-24T10:06:56.986Z,45.90
2024-01-24T10:09:00.552Z,34.57
2024-01-24T10:11:03.436Z,28.97
2024-01-24T10:13:07.833Z,30.38
2024-01-24T10:15:11.475Z,24.62
2024-01-24T10:17:14.961Z,22.37
2024-01-24T10:19:22.568Z,22.00
2024-01-24T10:21:27.236Z,20.85
2024-01-24T10:23:30.710Z,20.28
2024-01-24T10:25:33.543Z,28.93
2024-01-24T10:27:38.731Z,40.72
2024-01-24T10:29:44.196Z,36.04
2024-01-24T10:31:47.451Z,27.56
2024-01-24T10:33:55.273Z,26.11
2024-01-24T10:36:03.038Z,24.87
2024-01-24T10:38:13.828Z,26.12
2024-01-24T10:40:17.721Z,28.65
2024-01-24T10:42:23.825Z,23.05
2024-01-24T10:44:26.856Z,19.35
2024-01-24T10:46:30.258Z,26.73
2024-01-24T10:48:36.410Z,26.86
2024-01-24T10:50:51.649Z,23.08
2024-01-24T10:53:00.202Z,22.82
2024-01-24T10:55:14.761Z,19.23
2024-01-24T10:57:23.495Z,21.51
2024-01-24T10:59:36.597Z,22.45
2024-01-24T11:01:39.463Z,17.68
2024-01-24T11:03:43.912Z,17.48
2024-01-24T11:05:57.878Z,19.25
2024-01-24T11:08:23.682Z,23.15
2024-01-24T11:10:35.393Z,19.82
2024-01-24T11:12:38.334Z,22.69
2024-01-24T11:14:46.683Z,23.87
2024-01-24T11:16:49.506Z,19.82
2024-01-24T11:18:53.063Z,19.11
2024-01-24T11:21:01.094Z,18.40
2024-01-24T11:23:36.486Z,17.91
2024-01-24T11:25:39.554Z,16.13
2024-01-24T11:27:44.893Z,15.36
2024-01-24T11:29:47.780Z,15.23
2024-01-24T11:31:50.694Z,15.84
2024-01-24T11:34:15.554Z,15.34
2024-01-24T11:36:18.628Z,36.11
2024-01-24T11:38:26.675Z,26.30
2024-01-24T11:40:37.474Z,30.49
2024-01-24T11:42:44.585Z,22.37
2024-01-24T11:44:48.484Z,26.00
2024-01-24T11:46:53.113Z,24.45
2024-01-24T11:49:05.557Z,20.13
2024-01-24T11:51:11.858Z,20.19
2024-01-24T11:53:14.611Z,19.03
2024-01-24T11:55:17.416Z,24.72
2024-01-24T11:57:20.467Z,23.46
2024-01-24T11:59:23.315Z,20.27
2024-01-24T12:01:26.323Z,20.89
2024-01-24T12:03:29.235Z,27.91
2024-01-24T12:05:32.058Z,25.28
2024-01-24T12:07:35.070Z,19.59
2024-01-24T12:09:37.952Z,24.17
2024-01-24T12:11:40.732Z,36.74
2024-01-24T12:13:43.743Z,31.81
2024-01-24T12:15:47.398Z,45.04
2024-01-24T12:17:50.481Z,63.22
2024-01-24T12:19:54.423Z,62.60
2024-01-24T12:21:59.529Z,80.65
2024-01-24T12:24:02.751Z,74.97
2024-01-24T12:26:05.864Z,38.75
2024-01-24T12:28:09.382Z,35.65
2024-01-24T12:30:14.308Z,44.38
2024-01-24T12:32:18.610Z,54.91
2024-01-24T12:34:22.690Z,48.62
2024-01-24T12:36:26.100Z,46.15
2024-01-24T12:38:29.038Z,37.44
2024-01-24T12:40:33.027Z,42.12
2024-01-24T12:42:36.476Z,54.75
2024-01-24T12:44:39.535Z,18.91
2024-01-24T12:46:42.400Z,68.47
2024-01-24T12:48:48.643Z,50.57
2024-01-24T12:50:51.838Z,33.26
2024-01-24T12:52:54.940Z,37.12
2024-01-24T12:54:57.796Z,29.37
2024-01-24T12:57:00.644Z,19.85
2024-01-24T12:59:03.598Z,22.68
2024-01-24T13:01:06.551Z,49.08
2024-01-24T13:03:09.341Z,21.67
2024-01-24T13:05:12.415Z,29.35
2024-01-24T13:07:15.530Z,52.81
2024-01-24T13:09:18.849Z,203.28
2024-01-24T13:11:21.727Z,115.15
2024-01-24T13:13:24.663Z,96.15
2024-01-24T13:15:27.519Z,53.01
2024-01-24T13:17:30.366Z,51.55
2024-01-24T13:19:33.373Z,59.95
2024-01-24T13:21:40.431Z,47.30
2024-01-24T13:23:45.525Z,33.48
2024-01-24T13:25:48.433Z,33.90
2024-01-24T13:27:51.312Z,23.03
2024-01-24T13:29:54.565Z,40.03
2024-01-24T13:31:57.382Z,30.61
2024-01-24T13:34:00.319Z,61.11
2024-01-24T13:36:03.263Z,26.61
2024-01-24T13:38:06.043Z,21.48
2024-01-24T13:40:13.149Z,26.72
2024-01-24T13:42:16.693Z,47.70
2024-01-24T13:44:19.520Z,36.94
2024-01-24T13:46:22.369Z,26.16
2024-01-24T13:48:25.345Z,20.18
2024-01-24T13:50:28.219Z,14.77
2024-01-24T13:52:31.244Z,16.75
2024-01-24T13:54:34.044Z,19.11
2024-01-24T13:56:36.964Z,20.94
2024-01-24T13:58:39.816Z,27.79
2024-01-24T14:00:43.450Z,43.67
2024-01-24T14:02:46.893Z,32.98
2024-01-24T14:04:50.924Z,25.24
2024-01-24T14:06:54.483Z,43.81
2024-01-24T14:08:57.603Z,19.87
2024-01-24T14:11:00.744Z,10.77
2024-01-24T14:13:04.196Z,12.03
2024-01-24T14:15:15.412Z,11.28
2024-01-24T14:17:26.590Z,11.72
2024-01-24T14:19:29.529Z,15.91
2024-01-24T14:21:33.702Z,41.93
2024-01-24T14:23:36.545Z,27.62
2024-01-24T14:25:39.503Z,71.54
2024-01-24T14:27:44.221Z,148.79
2024-01-24T14:29:47.080Z,88.73
2024-01-24T14:31:49.800Z,41.28
2024-01-24T14:33:52.798Z,28.04
2024-01-24T14:35:55.616Z,18.24
2024-01-24T14:37:59.298Z,19.02
2024-01-24T14:40:02.352Z,19.07
2024-01-24T14:42:08.545Z,17.91
2024-01-24T14:44:11.509Z,15.10
2024-01-24T14:46:14.265Z,15.23
2024-01-24T14:48:17.082Z,14.87
2024-01-24T14:50:19.895Z,15.98
2024-01-24T14:52:22.709Z,20.88
2024-01-24T14:54:25.666Z,19.24
2024-01-24T14:56:28.441Z,16.70
2024-01-24T14:58:31.327Z,19.50
2024-01-24T15:00:34.201Z,26.35
2024-01-24T15:02:40.659Z,26.22
2024-01-24T15:04:43.590Z,21.64
2024-01-24T15:06:46.502Z,18.70
2024-01-24T15:08:49.277Z,21.99
2024-01-24T15:10:52.174Z,23.87
2024-01-24T15:12:55.145Z,20.42
2024-01-24T15:14:57.881Z,21.86
2024-01-24T15:17:00.785Z,75.45
2024-01-24T15:19:04.522Z,22.30
2024-01-24T15:21:11.507Z,28.91
2024-01-24T15:23:16.355Z,18.81
2024-01-24T15:25:19.902Z,17.56
2024-01-24T15:27:25.091Z,17.93
2024-01-24T15:29:29.193Z,17.86
2024-01-24T15:31:32.281Z,19.03
2024-01-24T15:33:35.586Z,22.31
2024-01-24T15:35:38.766Z,21.02
2024-01-24T15:37:42.850Z,20.36
2024-01-24T15:39:45.834Z,22.57
2024-01-24T15:41:48.690Z,20.62
2024-01-24T15:43:51.456Z,15.34
2024-01-24T15:45:54.748Z,15.13
2024-01-24T15:47:57.747Z,15.88
2024-01-24T15:50:00.991Z,17.75
2024-01-24T15:52:04.082Z,21.50
2024-01-24T15:54:06.923Z,25.10
2024-01-24T15:56:10.212Z,32.52
2024-01-24T15:58:13.018Z,75.85
2024-01-24T16:00:16.770Z,65.52
2024-01-24T16:02:19.585Z,43.48
2024-01-24T16:04:22.795Z,100.95
2024-01-24T16:06:26.116Z,66.24
2024-01-24T16:08:29.202Z,116.85
2024-01-24T16:10:32.284Z,90.17
2024-01-24T16:12:35.092Z,56.43
2024-01-24T16:14:37.903Z,48.32
2024-01-24T16:16:40.641Z,38.41
2024-01-24T16:18:44.550Z,36.59
2024-01-24T16:20:47.360Z,38.65
2024-01-24T16:22:55.512Z,43.31
2024-01-24T16:24:59.835Z,49.37
2024-01-24T16:27:02.579Z,48.06
2024-01-24T16:29:05.341Z,48.85
2024-01-24T16:31:08.153Z,42.54
2024-01-24T16:33:11.397Z,42.49
2024-01-24T16:35:15.217Z,75.73
2024-01-24T16:37:18.090Z,94.81
2024-01-24T16:39:20.885Z,51.91
2024-01-24T16:41:23.655Z,61.45
2024-01-24T16:43:37.954Z,65.17
2024-01-24T16:45:40.965Z,39.06
2024-01-24T16:47:46.138Z,39.65
2024-01-24T16:49:49.507Z,33.33
2024-01-24T16:51:52.494Z,26.80
2024-01-24T16:53:55.834Z,27.43
2024-01-24T16:55:58.712Z,24.63
2024-01-24T16:58:01.502Z,18.95
2024-01-24T17:00:05.585Z,23.04
2024-01-24T17:02:08.356Z,44.68
2024-01-24T17:04:11.239Z,29.75
2024-01-24T17:06:14.084Z,23.35
2024-01-24T17:08:16.881Z,31.24
2024-01-24T17:10:19.632Z,28.25
2024-01-24T17:12:23.136Z,25.83
2024-01-24T17:14:25.984Z,23.76
2024-01-24T17:16:28.736Z,22.03
2024-01-24T17:18:31.873Z,22.67
2024-01-24T17:20:34.753Z,14.36
2024-01-24T17:22:37.488Z,15.14
2024-01-24T17:24:40.254Z,25.79
2024-01-24T17:26:43.023Z,26.68
2024-01-24T17:28:45.968Z,20.94
2024-01-24T17:30:49.009Z,27.58
2024-01-24T17:32:52.047Z,22.20
2024-01-24T17:34:55.143Z,19.31
2024-01-24T17:36:57.972Z,15.23
2024-01-24T17:39:01.009Z,14.59
2024-01-24T17:41:04.800Z,15.56
2024-01-24T17:43:07.680Z,16.97
2024-01-24T17:45:11.113Z,17.09
2024-01-24T17:47:13.999Z,15.15
2024-01-24T17:49:17.315Z,17.14
2024-01-24T17:51:21.480Z,18.51
2024-01-24T17:53:24.275Z,19.80
2024-01-24T17:55:29.354Z,18.68
2024-01-24T17:57:33.410Z,20.43
2024-01-24T17:59:36.711Z,23.52
2024-01-24T18:01:40.202Z,21.38
2024-01-24T18:03:43.634Z,20.51
2024-01-24T18:05:47.051Z,14.68
2024-01-24T18:07:50.180Z,18.95
2024-01-24T18:09:56.496Z,17.03
2024-01-24T18:11:59.912Z,22.12
2024-01-24T18:14:03.141Z,23.94
2024-01-24T18:16:06.676Z,33.17
2024-01-24T18:18:11.365Z,27.02
2024-01-24T18:20:14.607Z,23.73
2024-01-24T18:22:17.601Z,22.87
2024-01-24T18:24:20.562Z,22.78
2024-01-24T18:26:23.627Z,20.30
2024-01-24T18:28:27.173Z,20.46
2024-01-24T18:30:31.154Z,22.09
2024-01-24T18:32:35.762Z,21.24
2024-01-24T18:34:39.710Z,21.47
2024-01-24T18:36:43.269Z,25.57
2024-01-24T18:38:47.079Z,24.65
2024-01-24T18:40:50.907Z,31.20
2024-01-24T18:42:54.555Z,29.65
2024-01-24T18:44:58.936Z,30.46
2024-01-24T18:47:02.409Z,29.35
2024-01-24T18:49:05.772Z,28.27
2024-01-24T18:51:10.915Z,33.53
2024-01-24T18:53:14.543Z,29.71
2024-01-24T18:55:19.038Z,27.27
2024-01-24T18:57:28.460Z,23.93
2024-01-24T18:59:32.779Z,22.10
2024-01-24T19:01:39.364Z,21.19
2024-01-24T19:03:43.433Z,23.85
2024-01-24T19:05:47.972Z,25.90
2024-01-24T19:07:52.723Z,24.21
2024-01-24T19:09:59.013Z,21.85
2024-01-24T19:12:02.668Z,22.49
2024-01-24T19:14:06.436Z,24.62
2024-01-24T19:16:10.053Z,38.66
2024-01-24T19:18:17.306Z,34.27
2024-01-24T19:20:22.533Z,28.45
2024-01-24T19:22:26.139Z,26.57
2024-01-24T19:24:29.687Z,28.02
2024-01-24T19:26:36.002Z,27.44
2024-01-24T19:28:40.300Z,32.25
2024-01-24T19:30:44.046Z,40.68
2024-01-24T19:32:48.929Z,41.15
2024-01-24T19:34:54.391Z,39.15
2024-01-24T19:36:58.263Z,38.42
2024-01-24T19:39:02.096Z,38.51
2024-01-24T19:41:06.116Z,36.85
2024-01-24T19:43:11.727Z,34.49
2024-01-24T19:45:15.704Z,33.57
2024-01-24T19:47:21.315Z,32.93
2024-01-24T19:49:25.903Z,32.50
2024-01-24T19:51:30.235Z,34.09
2024-01-24T19:53:34.953Z,34.48
2024-01-24T19:55:39.383Z,33.25
2024-01-24T19:57:43.375Z,32.48
2024-01-24T19:59:48.809Z,34.00
2024-01-24T20:01:53.392Z,34.15
2024-01-24T20:03:57.206Z,34.84
2024-01-24T20:06:04.272Z,35.29
2024-01-24T20:08:08.424Z,36.07
2024-01-24T20:10:12.585Z,48.41
2024-01-24T20:12:18.006Z,50.54
2024-01-24T20:14:22.773Z,48.44
2024-01-24T20:16:27.032Z,49.81
2024-01-24T20:18:31.253Z,52.63
2024-01-24T20:20:35.540Z,46.68
2024-01-24T20:22:39.457Z,44.24
2024-01-24T20:24:44.978Z,44.79
2024-01-24T20:26:49.877Z,55.81
2024-01-24T20:28:54.572Z,60.80
2024-01-24T20:30:58.723Z,58.78
2024-01-24T20:33:05.193Z,51.86
2024-01-24T20:35:10.260Z,49.78
2024-01-24T20:37:14.553Z,43.66
2024-01-24T20:39:20.056Z,42.44
2024-01-24T20:41:25.011Z,37.88
2024-01-24T20:43:29.933Z,39.85
2024-01-24T20:45:35.681Z,37.67
2024-01-24T20:47:39.878Z,35.90
2024-01-24T20:49:44.065Z,35.74
2024-01-24T20:51:50.438Z,34.76
2024-01-24T20:53:54.227Z,32.74
2024-01-24T20:55:58.137Z,33.13
2024-01-24T20:58:01.804Z,32.11
2024-01-24T21:00:08.379Z,30.89
2024-01-24T21:02:12.254Z,28.11
2024-01-24T21:04:16.405Z,26.22
2024-01-24T21:06:23.742Z,25.73
2024-01-24T21:08:27.378Z,24.12
2024-01-24T21:10:30.767Z,22.06
2024-01-24T21:12:34.035Z,21.21
2024-01-24T21:14:37.408Z,21.45
2024-01-24T21:16:40.610Z,20.94
2024-01-24T21:18:45.073Z,17.82
2024-01-24T21:20:48.165Z,15.95
2024-01-24T21:22:51.168Z,15.48
2024-01-24T21:24:54.481Z,16.28
2024-01-24T21:26:57.387Z,16.84
2024-01-24T21:29:00.194Z,15.93
2024-01-24T21:31:03.068Z,15.58
2024-01-24T21:33:05.907Z,14.46
2024-01-24T21:35:10.440Z,14.23
2024-01-24T21:37:13.289Z,14.63
2024-01-24T21:39:16.080Z,13.68
2024-01-24T21:41:18.821Z,14.72
2024-01-24T21:43:22.781Z,13.86
2024-01-24T21:45:25.511Z,13.44
2024-01-24T21:47:28.574Z,13.10
2024-01-24T21:49:32.461Z,13.34
2024-01-24T21:51:35.231Z,12.75
2024-01-24T21:53:37.962Z,11.54
2024-01-24T21:55:40.795Z,11.60
2024-01-24T21:57:50.022Z,11.98
2024-01-24T21:59:54.088Z,12.43
2024-01-24T22:01:57.401Z,11.55
2024-01-24T22:04:00.451Z,10.84
2024-01-24T22:06:03.407Z,9.56
2024-01-24T22:08:07.958Z,8.94
2024-01-24T22:10:10.762Z,9.18
2024-01-24T22:12:13.909Z,10.29
2024-01-24T22:14:16.649Z,9.37
2024-01-24T22:16:19.536Z,9.59
2024-01-24T22:18:25.273Z,9.44
2024-01-24T22:20:32.849Z,9.11
2024-01-24T22:22:36.590Z,8.15
2024-01-24T22:24:39.551Z,7.96
2024-01-24T22:26:42.662Z,7.59
2024-01-24T22:28:45.406Z,7.93
2024-01-24T22:30:48.977Z,8.24
2024-01-24T22:32:51.749Z,7.61
2024-01-24T22:34:54.635Z,8.16
2024-01-24T22:36:57.439Z,7.53
2024-01-24T22:39:00.251Z,7.54
2024-01-24T22:41:02.957Z,7.97
2024-01-24T22:43:05.728Z,7.37
2024-01-24T22:45:08.818Z,6.97
2024-01-24T22:47:11.525Z,7.05
2024-01-24T22:49:14.595Z,7.10
2024-01-24T22:51:17.378Z,7.42
2024-01-24T22:53:20.114Z,6.63
2024-01-24T22:55:22.993Z,9.35
2024-01-24T22:57:25.776Z,6.50
2024-01-24T22:59:28.495Z,7.23
2024-01-24T23:01:32.087Z,6.92
2024-01-24T23:03:34.953Z,6.05
2024-01-24T23:05:37.834Z,6.39
2024-01-24T23:07:41.754Z,5.56
2024-01-24T23:09:44.620Z,5.32
2024-01-24T23:11:47.416Z,4.64
2024-01-24T23:13:50.126Z,4.93
2024-01-24T23:15:53.349Z,4.69
2024-01-24T23:17:56.143Z,4.52
2024-01-24T23:19:59.088Z,3.92
2024-01-24T23:22:01.960Z,4.25
2024-01-24T23:24:05.072Z,4.85
2024-01-24T23:26:07.814Z,4.74
2024-01-24T23:28:10.535Z,5.01
2024-01-24T23:30:13.574Z,4.90
2024-01-24T23:32:16.765Z,4.76
2024-01-24T23:34:19.661Z,5.13
2024-01-24T23:36:22.469Z,4.95
2024-01-24T23:38:25.356Z,5.53
2024-01-24T23:40:28.227Z,5.75
2024-01-24T23:42:31.056Z,6.59
2024-01-24T23:44:35.506Z,6.35
2024-01-24T23:46:38.492Z,5.91
2024-01-24T23:48:41.361Z,5.72
2024-01-24T23:50:44.624Z,5.99
2024-01-24T23:52:47.570Z,5.37
2024-01-24T23:54:50.351Z,5.11
2024-01-24T23:56:53.092Z,4.78
2024-01-24T23:58:55.815Z,4.15
